الصفحة الرئيسية
METAR-TAF:

METAR-TAF

مطار :

كراكاس, فنزويلا

دائرة عرض: 10-36N, خط طول: 066-59W, ارتفاع: 43 متر

مراقبة الطقس الحالي

تاريخ ووقت الإصدار 54 دقيقة قبل الساعة 21:00UTC
ريح 4 عقدة من الشرق
درجة الحرارة 30°درجة مئوية
الرطوبة 62%
ضغط 1011 hPa
الرؤية 10 كم أو أكثر
غيوم متفرقة على ارتفاع 1600 قدم

METAR: SVMI 282100Z 09004KT 9999 SCT016 30/22 Q1011

زمن: 17:54 (21:54 UTC)

توقعات

تاريخ ووقت الإصدار 5ساعات و 54 دقيقة قبل الساعة 16:00UTC
التوقعات صالحة من28 الساعة 18 UTC إلى 29 الساعة 18 UTC
ريح 6 عقدة من الشرق
الرؤية 10 كم أو أكثر
غيوم متفرقة على ارتفاع 2000 قدم
أصبح
من 28 الساعة 20 UTC إلى 29 الساعة 00 UTC
ريح 1 عقدة من الشرق
الرؤية 10 كم أو أكثر
غيوم قليلة على ارتفاع 1300 قدم

TAF: SVMI 281600Z 2818/2918 09006KT 9999 SCT020 TX32/2818Z TN24/2908Z BECMG 2820/2900 09001KT 9999 FEW013

أرصاد الطقس والتوقعات من أكثر من 4000 مطار (تقارير الطقس للمطار METAR والتنبؤ بالطقس بالمطارTAF).

المحطات المتاحة هي النقط الصفراء والحمراء على الخريطة.

حرك المؤشر فوق النقطة لمعرفة اسم المحطة.

ثم انقر لمعرفة أرصاد وتوقعات الطقس.

لتغيير الخارطة: اضغط على الأزرار الخضراء مع رمز الصليب الأسود للتكبير. على الزر الأخضر مع شرطة للتصغير، أو على الأسهم الخضراء للخرائط المجاورة.


METAR-TAF: